sensor_id;sensor_type;location;lat;lon;timestamp;P1;durP1;ratioP1;P2;durP2;ratioP2
10731;SDS011;74907;42.812;23.216;2024-02-21T00:02:06;9.30;;;8.40;;
10731;SDS011;74907;42.812;23.216;2024-02-21T00:04:33;9.17;;;8.20;;
10731;SDS011;74907;42.812;23.216;2024-02-21T00:07:00;9.23;;;8.33;;
10731;SDS011;74907;42.812;23.216;2024-02-21T00:09:27;8.23;;;7.50;;
10731;SDS011;74907;42.812;23.216;2024-02-21T00:11:53;8.40;;;7.67;;
10731;SDS011;74907;42.812;23.216;2024-02-21T00:14:21;8.73;;;7.93;;
10731;SDS011;74907;42.812;23.216;2024-02-21T00:16:48;9.03;;;8.23;;
10731;SDS011;74907;42.812;23.216;2024-02-21T00:19:15;8.97;;;8.07;;
10731;SDS011;74907;42.812;23.216;2024-02-21T00:21:41;9.57;;;8.73;;
10731;SDS011;74907;42.812;23.216;2024-02-21T00:24:08;9.60;;;8.67;;
10731;SDS011;74907;42.812;23.216;2024-02-21T00:26:35;8.40;;;7.67;;
10731;SDS011;74907;42.812;23.216;2024-02-21T00:29:01;7.60;;;7.00;;
10731;SDS011;74907;42.812;23.216;2024-02-21T00:31:29;8.40;;;7.60;;
10731;SDS011;74907;42.812;23.216;2024-02-21T00:33:56;7.20;;;6.60;;
10731;SDS011;74907;42.812;23.216;2024-02-21T00:36:23;7.53;;;6.87;;
10731;SDS011;74907;42.812;23.216;2024-02-21T00:38:50;7.50;;;6.90;;
10731;SDS011;74907;42.812;23.216;2024-02-21T00:41:16;8.10;;;6.97;;
10731;SDS011;74907;42.812;23.216;2024-02-21T00:43:43;7.73;;;7.10;;
10731;SDS011;74907;42.812;23.216;2024-02-21T00:46:10;7.37;;;6.73;;
10731;SDS011;74907;42.812;23.216;2024-02-21T00:48:38;7.80;;;7.10;;
10731;SDS011;74907;42.812;23.216;2024-02-21T00:51:04;8.27;;;7.47;;
10731;SDS011;74907;42.812;23.216;2024-02-21T00:53:31;7.57;;;6.87;;
10731;SDS011;74907;42.812;23.216;2024-02-21T00:55:58;9.27;;;8.37;;
10731;SDS011;74907;42.812;23.216;2024-02-21T00:58:24;7.70;;;7.00;;
10731;SDS011;74907;42.812;23.216;2024-02-21T01:00:51;8.77;;;7.97;;
10731;SDS011;74907;42.812;23.216;2024-02-21T01:03:18;8.67;;;7.90;;
10731;SDS011;74907;42.812;23.216;2024-02-21T01:05:46;7.93;;;7.13;;
10731;SDS011;74907;42.812;23.216;2024-02-21T01:08:13;7.97;;;7.27;;
10731;SDS011;74907;42.812;23.216;2024-02-21T01:10:39;8.37;;;7.57;;
10731;SDS011;74907;42.812;23.216;2024-02-21T01:13:06;7.90;;;7.20;;
10731;SDS011;74907;42.812;23.216;2024-02-21T01:15:33;7.93;;;7.23;;
10731;SDS011;74907;42.812;23.216;2024-02-21T01:18:00;8.37;;;7.60;;
10731;SDS011;74907;42.812;23.216;2024-02-21T01:20:27;8.90;;;8.00;;
10731;SDS011;74907;42.812;23.216;2024-02-21T01:22:55;7.57;;;6.97;;
10731;SDS011;74907;42.812;23.216;2024-02-21T01:25:22;9.23;;;8.33;;
10731;SDS011;74907;42.812;23.216;2024-02-21T01:27:50;10.03;;;9.03;;
10731;SDS011;74907;42.812;23.216;2024-02-21T01:30:17;9.27;;;8.23;;
10731;SDS011;74907;42.812;23.216;2024-02-21T01:32:44;8.57;;;7.77;;
10731;SDS011;74907;42.812;23.216;2024-02-21T01:35:11;8.27;;;7.57;;
10731;SDS011;74907;42.812;23.216;2024-02-21T01:37:37;8.63;;;7.83;;
10731;SDS011;74907;42.812;23.216;2024-02-21T01:40:06;9.37;;;8.40;;
10731;SDS011;74907;42.812;23.216;2024-02-21T01:42:37;8.30;;;7.60;;
10731;SDS011;74907;42.812;23.216;2024-02-21T01:45:04;8.30;;;7.50;;
10731;SDS011;74907;42.812;23.216;2024-02-21T01:47:31;7.50;;;6.80;;
10731;SDS011;74907;42.812;23.216;2024-02-21T01:49:59;9.23;;;8.30;;
10731;SDS011;74907;42.812;23.216;2024-02-21T01:52:27;9.20;;;8.30;;
10731;SDS011;74907;42.812;23.216;2024-02-21T01:54:54;8.63;;;7.80;;
10731;SDS011;74907;42.812;23.216;2024-02-21T01:57:23;9.73;;;8.73;;
10731;SDS011;74907;42.812;23.216;2024-02-21T01:59:50;9.17;;;8.30;;
10731;SDS011;74907;42.812;23.216;2024-02-21T02:02:16;8.60;;;7.80;;
10731;SDS011;74907;42.812;23.216;2024-02-21T02:04:44;8.63;;;7.73;;
10731;SDS011;74907;42.812;23.216;2024-02-21T02:07:12;8.67;;;7.87;;
10731;SDS011;74907;42.812;23.216;2024-02-21T02:09:38;8.43;;;7.63;;
10731;SDS011;74907;42.812;23.216;2024-02-21T02:12:05;9.20;;;8.07;;
10731;SDS011;74907;42.812;23.216;2024-02-21T02:14:34;8.70;;;7.90;;
10731;SDS011;74907;42.812;23.216;2024-02-21T02:17:00;9.53;;;8.53;;
10731;SDS011;74907;42.812;23.216;2024-02-21T02:19:27;9.27;;;8.27;;
10731;SDS011;74907;42.812;23.216;2024-02-21T02:21:55;9.00;;;8.17;;
10731;SDS011;74907;42.812;23.216;2024-02-21T02:24:29;11.83;;;9.00;;
10731;SDS011;74907;42.812;23.216;2024-02-21T02:26:56;9.47;;;8.50;;
10731;SDS011;74907;42.812;23.216;2024-02-21T02:29:22;11.13;;;9.27;;
10731;SDS011;74907;42.812;23.216;2024-02-21T02:31:49;11.43;;;9.90;;
10731;SDS011;74907;42.812;23.216;2024-02-21T02:34:16;11.40;;;9.90;;
10731;SDS011;74907;42.812;23.216;2024-02-21T02:36:41;12.97;;;10.00;;
10731;SDS011;74907;42.812;23.216;2024-02-21T02:39:08;13.90;;;10.67;;
10731;SDS011;74907;42.812;23.216;2024-02-21T02:41:36;11.00;;;9.73;;
10731;SDS011;74907;42.812;23.216;2024-02-21T02:44:03;10.67;;;9.53;;
10731;SDS011;74907;42.812;23.216;2024-02-21T02:46:30;9.80;;;8.83;;
10731;SDS011;74907;42.812;23.216;2024-02-21T02:48:56;9.87;;;8.97;;
10731;SDS011;74907;42.812;23.216;2024-02-21T02:51:23;9.83;;;8.90;;
10731;SDS011;74907;42.812;23.216;2024-02-21T02:53:50;14.17;;;9.87;;
10731;SDS011;74907;42.812;23.216;2024-02-21T02:56:16;10.50;;;9.40;;
10731;SDS011;74907;42.812;23.216;2024-02-21T02:58:45;10.67;;;9.57;;
10731;SDS011;74907;42.812;23.216;2024-02-21T03:01:11;10.67;;;9.20;;
10731;SDS011;74907;42.812;23.216;2024-02-21T03:03:38;10.93;;;8.93;;
10731;SDS011;74907;42.812;23.216;2024-02-21T03:06:05;10.43;;;9.43;;
10731;SDS011;74907;42.812;23.216;2024-02-21T03:08:32;11.60;;;10.40;;
10731;SDS011;74907;42.812;23.216;2024-02-21T03:10:59;10.07;;;9.10;;
10731;SDS011;74907;42.812;23.216;2024-02-21T03:13:26;9.97;;;9.03;;
10731;SDS011;74907;42.812;23.216;2024-02-21T03:15:54;10.20;;;9.20;;
10731;SDS011;74907;42.812;23.216;2024-02-21T03:18:20;9.57;;;8.43;;
10731;SDS011;74907;42.812;23.216;2024-02-21T03:20:47;10.20;;;9.20;;
10731;SDS011;74907;42.812;23.216;2024-02-21T03:23:14;9.83;;;8.83;;
10731;SDS011;74907;42.812;23.216;2024-02-21T03:25:41;8.70;;;7.93;;
10731;SDS011;74907;42.812;23.216;2024-02-21T03:28:08;9.23;;;8.33;;
10731;SDS011;74907;42.812;23.216;2024-02-21T03:30:34;9.50;;;8.50;;
10731;SDS011;74907;42.812;23.216;2024-02-21T03:33:02;9.87;;;8.87;;
10731;SDS011;74907;42.812;23.216;2024-02-21T03:35:30;10.53;;;9.43;;
10731;SDS011;74907;42.812;23.216;2024-02-21T03:37:56;9.73;;;8.83;;
10731;SDS011;74907;42.812;23.216;2024-02-21T03:40:23;9.93;;;9.03;;
10731;SDS011;74907;42.812;23.216;2024-02-21T03:42:50;10.20;;;9.20;;
10731;SDS011;74907;42.812;23.216;2024-02-21T03:45:16;9.37;;;8.47;;
10731;SDS011;74907;42.812;23.216;2024-02-21T03:47:43;10.47;;;9.43;;
10731;SDS011;74907;42.812;23.216;2024-02-21T03:50:11;9.77;;;8.80;;
10731;SDS011;74907;42.812;23.216;2024-02-21T03:52:38;11.27;;;10.20;;
10731;SDS011;74907;42.812;23.216;2024-02-21T03:55:05;13.80;;;11.60;;
10731;SDS011;74907;42.812;23.216;2024-02-21T03:57:33;13.23;;;11.17;;
10731;SDS011;74907;42.812;23.216;2024-02-21T03:59:59;11.83;;;10.60;;
10731;SDS011;74907;42.812;23.216;2024-02-21T04:02:26;13.17;;;11.70;;
10731;SDS011;74907;42.812;23.216;2024-02-21T04:04:53;14.80;;;12.20;;
10731;SDS011;74907;42.812;23.216;2024-02-21T04:07:21;12.60;;;11.30;;
10731;SDS011;74907;42.812;23.216;2024-02-21T04:09:48;14.87;;;11.47;;
10731;SDS011;74907;42.812;23.216;2024-02-21T04:12:14;14.60;;;12.17;;
10731;SDS011;74907;42.812;23.216;2024-02-21T04:14:41;21.17;;;14.97;;
10731;SDS011;74907;42.812;23.216;2024-02-21T04:17:07;25.10;;;16.80;;
10731;SDS011;74907;42.812;23.216;2024-02-21T04:19:34;19.37;;;12.83;;
10731;SDS011;74907;42.812;23.216;2024-02-21T04:22:01;14.57;;;11.53;;
10731;SDS011;74907;42.812;23.216;2024-02-21T04:24:29;12.30;;;11.00;;
10731;SDS011;74907;42.812;23.216;2024-02-21T04:26:56;13.00;;;11.47;;
10731;SDS011;74907;42.812;23.216;2024-02-21T04:29:22;12.50;;;11.20;;
10731;SDS011;74907;42.812;23.216;2024-02-21T04:31:49;12.33;;;11.03;;
10731;SDS011;74907;42.812;23.216;2024-02-21T04:34:16;16.03;;;12.47;;
10731;SDS011;74907;42.812;23.216;2024-02-21T04:36:43;20.53;;;15.83;;
10731;SDS011;74907;42.812;23.216;2024-02-21T04:39:09;21.77;;;16.63;;
10731;SDS011;74907;42.812;23.216;2024-02-21T04:41:38;20.40;;;15.87;;
10731;SDS011;74907;42.812;23.216;2024-02-21T04:44:04;15.97;;;13.87;;
10731;SDS011;74907;42.812;23.216;2024-02-21T04:46:31;18.07;;;14.20;;
10731;SDS011;74907;42.812;23.216;2024-02-21T04:48:58;16.60;;;14.00;;
10731;SDS011;74907;42.812;23.216;2024-02-21T04:51:24;15.10;;;13.47;;
10731;SDS011;74907;42.812;23.216;2024-02-21T04:53:51;14.13;;;12.57;;
10731;SDS011;74907;42.812;23.216;2024-02-21T04:56:18;18.00;;;15.40;;
10731;SDS011;74907;42.812;23.216;2024-02-21T04:58:46;21.00;;;18.27;;
10731;SDS011;74907;42.812;23.216;2024-02-21T05:01:12;21.83;;;17.70;;
10731;SDS011;74907;42.812;23.216;2024-02-21T05:03:39;23.03;;;17.90;;
10731;SDS011;74907;42.812;23.216;2024-02-21T05:06:06;20.07;;;17.40;;
10731;SDS011;74907;42.812;23.216;2024-02-21T05:08:32;18.90;;;15.40;;
10731;SDS011;74907;42.812;23.216;2024-02-21T05:10:59;16.17;;;13.53;;
10731;SDS011;74907;42.812;23.216;2024-02-21T05:13:26;14.90;;;12.87;;
10731;SDS011;74907;42.812;23.216;2024-02-21T05:15:54;23.33;;;16.63;;
10731;SDS011;74907;42.812;23.216;2024-02-21T05:18:21;28.13;;;19.83;;
10731;SDS011;74907;42.812;23.216;2024-02-21T05:20:47;25.50;;;18.20;;
10731;SDS011;74907;42.812;23.216;2024-02-21T05:23:14;20.07;;;15.70;;
10731;SDS011;74907;42.812;23.216;2024-02-21T05:25:41;13.90;;;12.47;;
10731;SDS011;74907;42.812;23.216;2024-02-21T05:28:07;17.07;;;13.80;;
10731;SDS011;74907;42.812;23.216;2024-02-21T05:30:34;16.53;;;13.90;;
10731;SDS011;74907;42.812;23.216;2024-02-21T05:33:05;20.00;;;15.60;;
10731;SDS011;74907;42.812;23.216;2024-02-21T05:35:32;17.03;;;15.20;;
10731;SDS011;74907;42.812;23.216;2024-02-21T05:38:00;18.50;;;16.50;;
10731;SDS011;74907;42.812;23.216;2024-02-21T05:40:29;20.80;;;16.60;;
10731;SDS011;74907;42.812;23.216;2024-02-21T05:42:56;20.63;;;18.30;;
10731;SDS011;74907;42.812;23.216;2024-02-21T05:45:22;16.30;;;14.30;;
10731;SDS011;74907;42.812;23.216;2024-02-21T05:47:49;16.27;;;14.57;;
10731;SDS011;74907;42.812;23.216;2024-02-21T05:50:17;16.93;;;14.27;;
10731;SDS011;74907;42.812;23.216;2024-02-21T05:52:46;15.97;;;13.80;;
10731;SDS011;74907;42.812;23.216;2024-02-21T05:55:12;16.37;;;13.37;;
10731;SDS011;74907;42.812;23.216;2024-02-21T05:57:39;15.93;;;13.77;;
10731;SDS011;74907;42.812;23.216;2024-02-21T06:00:06;16.30;;;14.60;;
10731;SDS011;74907;42.812;23.216;2024-02-21T06:02:34;16.50;;;14.33;;
10731;SDS011;74907;42.812;23.216;2024-02-21T06:05:00;19.47;;;16.17;;
10731;SDS011;74907;42.812;23.216;2024-02-21T06:07:28;22.30;;;19.77;;
10731;SDS011;74907;42.812;23.216;2024-02-21T06:09:55;23.20;;;19.17;;
10731;SDS011;74907;42.812;23.216;2024-02-21T06:12:22;19.90;;;17.87;;
10731;SDS011;74907;42.812;23.216;2024-02-21T06:14:48;19.37;;;17.30;;
10731;SDS011;74907;42.812;23.216;2024-02-21T06:17:15;17.40;;;15.60;;
10731;SDS011;74907;42.812;23.216;2024-02-21T06:19:42;15.90;;;14.30;;
10731;SDS011;74907;42.812;23.216;2024-02-21T06:22:09;16.23;;;14.63;;
10731;SDS011;74907;42.812;23.216;2024-02-21T06:24:37;18.23;;;14.73;;
10731;SDS011;74907;42.812;23.216;2024-02-21T06:27:04;16.70;;;15.00;;
10731;SDS011;74907;42.812;23.216;2024-02-21T06:29:32;14.60;;;13.10;;
10731;SDS011;74907;42.812;23.216;2024-02-21T06:31:59;15.80;;;13.63;;
10731;SDS011;74907;42.812;23.216;2024-02-21T06:34:26;15.03;;;13.47;;
10731;SDS011;74907;42.812;23.216;2024-02-21T06:36:52;16.20;;;14.50;;
10731;SDS011;74907;42.812;23.216;2024-02-21T06:39:19;14.83;;;13.27;;
10731;SDS011;74907;42.812;23.216;2024-02-21T06:41:49;15.40;;;13.80;;
10731;SDS011;74907;42.812;23.216;2024-02-21T06:44:17;15.17;;;13.67;;
10731;SDS011;74907;42.812;23.216;2024-02-21T06:46:44;15.73;;;14.07;;
10731;SDS011;74907;42.812;23.216;2024-02-21T06:49:11;15.83;;;14.20;;
10731;SDS011;74907;42.812;23.216;2024-02-21T06:51:41;15.30;;;13.70;;
10731;SDS011;74907;42.812;23.216;2024-02-21T06:54:07;16.07;;;14.57;;
10731;SDS011;74907;42.812;23.216;2024-02-21T06:56:34;18.10;;;14.63;;
10731;SDS011;74907;42.812;23.216;2024-02-21T06:59:03;14.57;;;13.03;;
10731;SDS011;74907;42.812;23.216;2024-02-21T07:01:30;16.53;;;13.67;;
10731;SDS011;74907;42.812;23.216;2024-02-21T07:03:57;14.70;;;13.20;;
10731;SDS011;74907;42.812;23.216;2024-02-21T07:06:23;15.57;;;13.60;;
10731;SDS011;74907;42.812;23.216;2024-02-21T07:08:50;14.23;;;12.73;;
10731;SDS011;74907;42.812;23.216;2024-02-21T07:11:17;16.77;;;13.17;;
10731;SDS011;74907;42.812;23.216;2024-02-21T07:13:43;15.83;;;13.67;;
10731;SDS011;74907;42.812;23.216;2024-02-21T07:16:11;15.87;;;13.03;;
10731;SDS011;74907;42.812;23.216;2024-02-21T07:18:38;15.13;;;13.70;;
10731;SDS011;74907;42.812;23.216;2024-02-21T07:21:05;20.70;;;13.70;;
10731;SDS011;74907;42.812;23.216;2024-02-21T07:23:31;14.13;;;12.77;;
10731;SDS011;74907;42.812;23.216;2024-02-21T07:25:58;14.13;;;12.73;;
10731;SDS011;74907;42.812;23.216;2024-02-21T07:28:25;13.97;;;12.70;;
10731;SDS011;74907;42.812;23.216;2024-02-21T07:30:51;15.30;;;13.80;;
10731;SDS011;74907;42.812;23.216;2024-02-21T07:33:19;14.13;;;12.60;;
10731;SDS011;74907;42.812;23.216;2024-02-21T07:35:46;14.23;;;12.80;;
10731;SDS011;74907;42.812;23.216;2024-02-21T07:38:13;16.93;;;13.17;;
10731;SDS011;74907;42.812;23.216;2024-02-21T07:40:39;14.77;;;13.17;;
10731;SDS011;74907;42.812;23.216;2024-02-21T07:43:08;17.93;;;12.93;;
10731;SDS011;74907;42.812;23.216;2024-02-21T07:45:34;17.17;;;12.90;;
10731;SDS011;74907;42.812;23.216;2024-02-21T07:48:01;21.73;;;13.80;;
10731;SDS011;74907;42.812;23.216;2024-02-21T07:50:29;16.40;;;13.07;;
10731;SDS011;74907;42.812;23.216;2024-02-21T07:52:56;15.13;;;13.53;;
10731;SDS011;74907;42.812;23.216;2024-02-21T07:55:23;18.87;;;14.27;;
10731;SDS011;74907;42.812;23.216;2024-02-21T07:57:50;18.00;;;14.17;;
10731;SDS011;74907;42.812;23.216;2024-02-21T08:00:17;18.53;;;13.40;;
10731;SDS011;74907;42.812;23.216;2024-02-21T08:02:46;15.37;;;13.80;;
10731;SDS011;74907;42.812;23.216;2024-02-21T08:05:14;16.23;;;14.53;;
10731;SDS011;74907;42.812;23.216;2024-02-21T08:07:42;15.03;;;13.20;;
10731;SDS011;74907;42.812;23.216;2024-02-21T08:10:09;22.77;;;15.87;;
10731;SDS011;74907;42.812;23.216;2024-02-21T08:12:35;18.67;;;14.30;;
10731;SDS011;74907;42.812;23.216;2024-02-21T08:15:02;17.00;;;14.17;;
10731;SDS011;74907;42.812;23.216;2024-02-21T08:17:30;15.07;;;13.47;;
10731;SDS011;74907;42.812;23.216;2024-02-21T08:19:56;14.50;;;12.00;;
10731;SDS011;74907;42.812;23.216;2024-02-21T08:22:23;13.70;;;12.40;;
10731;SDS011;74907;42.812;23.216;2024-02-21T08:24:51;15.23;;;12.97;;
10731;SDS011;74907;42.812;23.216;2024-02-21T08:27:18;17.67;;;15.10;;
10731;SDS011;74907;42.812;23.216;2024-02-21T08:29:45;16.17;;;14.43;;
10731;SDS011;74907;42.812;23.216;2024-02-21T08:32:11;15.23;;;13.63;;
10731;SDS011;74907;42.812;23.216;2024-02-21T08:34:38;17.23;;;14.87;;
10731;SDS011;74907;42.812;23.216;2024-02-21T08:37:05;16.17;;;14.57;;
10731;SDS011;74907;42.812;23.216;2024-02-21T08:39:31;16.40;;;13.50;;
10731;SDS011;74907;42.812;23.216;2024-02-21T08:41:59;16.50;;;13.43;;
10731;SDS011;74907;42.812;23.216;2024-02-21T08:44:27;14.90;;;13.43;;
10731;SDS011;74907;42.812;23.216;2024-02-21T08:46:54;14.60;;;13.10;;
10731;SDS011;74907;42.812;23.216;2024-02-21T08:49:20;15.47;;;13.43;;
10731;SDS011;74907;42.812;23.216;2024-02-21T08:51:47;18.80;;;16.80;;
10731;SDS011;74907;42.812;23.216;2024-02-21T08:54:14;19.10;;;14.50;;
10731;SDS011;74907;42.812;23.216;2024-02-21T08:56:40;16.47;;;13.50;;
10731;SDS011;74907;42.812;23.216;2024-02-21T08:59:08;14.53;;;13.00;;
10731;SDS011;74907;42.812;23.216;2024-02-21T09:01:35;14.57;;;13.07;;
10731;SDS011;74907;42.812;23.216;2024-02-21T09:04:02;17.53;;;13.27;;
10731;SDS011;74907;42.812;23.216;2024-02-21T09:06:30;14.77;;;13.27;;
10731;SDS011;74907;42.812;23.216;2024-02-21T09:08:58;14.20;;;12.70;;
10731;SDS011;74907;42.812;23.216;2024-02-21T09:11:25;14.97;;;12.70;;
10731;SDS011;74907;42.812;23.216;2024-02-21T09:13:52;14.37;;;12.87;;
10731;SDS011;74907;42.812;23.216;2024-02-21T09:16:20;13.23;;;11.90;;
10731;SDS011;74907;42.812;23.216;2024-02-21T09:18:47;14.63;;;12.87;;
10731;SDS011;74907;42.812;23.216;2024-02-21T09:21:14;11.13;;;10.10;;
10731;SDS011;74907;42.812;23.216;2024-02-21T09:23:41;12.40;;;11.20;;
10731;SDS011;74907;42.812;23.216;2024-02-21T09:26:08;13.40;;;10.67;;
10731;SDS011;74907;42.812;23.216;2024-02-21T09:28:38;12.47;;;11.27;;
10731;SDS011;74907;42.812;23.216;2024-02-21T09:31:05;13.70;;;12.37;;
10731;SDS011;74907;42.812;23.216;2024-02-21T09:33:33;13.53;;;12.13;;
10731;SDS011;74907;42.812;23.216;2024-02-21T09:36:00;15.77;;;13.23;;
10731;SDS011;74907;42.812;23.216;2024-02-21T09:38:27;13.37;;;12.07;;
10731;SDS011;74907;42.812;23.216;2024-02-21T09:40:55;13.43;;;12.17;;
10731;SDS011;74907;42.812;23.216;2024-02-21T09:43:26;12.20;;;10.90;;
10731;SDS011;74907;42.812;23.216;2024-02-21T09:45:53;12.70;;;11.47;;
10731;SDS011;74907;42.812;23.216;2024-02-21T09:48:30;12.90;;;11.43;;
10731;SDS011;74907;42.812;23.216;2024-02-21T09:51:14;12.33;;;11.13;;
10731;SDS011;74907;42.812;23.216;2024-02-21T09:53:42;16.93;;;12.93;;
10731;SDS011;74907;42.812;23.216;2024-02-21T09:56:10;15.13;;;12.47;;
10731;SDS011;74907;42.812;23.216;2024-02-21T09:58:38;11.73;;;10.53;;
10731;SDS011;74907;42.812;23.216;2024-02-21T10:01:06;12.53;;;11.20;;
10731;SDS011;74907;42.812;23.216;2024-02-21T10:03:34;11.63;;;10.37;;
10731;SDS011;74907;42.812;23.216;2024-02-21T10:06:02;8.93;;;8.17;;
10731;SDS011;74907;42.812;23.216;2024-02-21T10:08:29;9.50;;;8.50;;
10731;SDS011;74907;42.812;23.216;2024-02-21T10:10:55;10.37;;;9.20;;
10731;SDS011;74907;42.812;23.216;2024-02-21T10:13:25;8.73;;;8.00;;
10731;SDS011;74907;42.812;23.216;2024-02-21T10:16:02;8.90;;;8.00;;
10731;SDS011;74907;42.812;23.216;2024-02-21T10:18:30;9.23;;;8.43;;
10731;SDS011;74907;42.812;23.216;2024-02-21T10:21:02;9.13;;;8.30;;
10731;SDS011;74907;42.812;23.216;2024-02-21T10:23:40;8.90;;;8.00;;
10731;SDS011;74907;42.812;23.216;2024-02-21T10:26:07;8.63;;;7.83;;
10731;SDS011;74907;42.812;23.216;2024-02-21T10:28:34;8.10;;;7.30;;
10731;SDS011;74907;42.812;23.216;2024-02-21T10:31:01;9.27;;;8.37;;
10731;SDS011;74907;42.812;23.216;2024-02-21T10:33:28;8.73;;;7.93;;
10731;SDS011;74907;42.812;23.216;2024-02-21T10:36:07;9.93;;;9.03;;
10731;SDS011;74907;42.812;23.216;2024-02-21T10:38:35;10.60;;;8.87;;
10731;SDS011;74907;42.812;23.216;2024-02-21T10:41:03;8.53;;;7.13;;
10731;SDS011;74907;42.812;23.216;2024-02-21T10:43:31;7.43;;;6.73;;
10731;SDS011;74907;42.812;23.216;2024-02-21T10:46:05;8.87;;;8.07;;
10731;SDS011;74907;42.812;23.216;2024-02-21T10:48:41;7.57;;;6.43;;
10731;SDS011;74907;42.812;23.216;2024-02-21T10:51:14;8.50;;;6.93;;
10731;SDS011;74907;42.812;23.216;2024-02-21T10:53:44;8.60;;;7.67;;
10731;SDS011;74907;42.812;23.216;2024-02-21T10:59:00;5.60;;;5.20;;
10731;SDS011;74907;42.812;23.216;2024-02-21T11:01:28;6.97;;;6.47;;
10731;SDS011;74907;42.812;23.216;2024-02-21T11:03:57;6.47;;;5.97;;
10731;SDS011;74907;42.812;23.216;2024-02-21T11:06:27;6.63;;;6.13;;
10731;SDS011;74907;42.812;23.216;2024-02-21T11:09:01;8.97;;;8.20;;
10731;SDS011;74907;42.812;23.216;2024-02-21T11:11:29;6.33;;;5.83;;
10731;SDS011;74907;42.812;23.216;2024-02-21T11:14:05;5.57;;;5.17;;
10731;SDS011;74907;42.812;23.216;2024-02-21T11:16:36;6.77;;;6.20;;
10731;SDS011;74907;42.812;23.216;2024-02-21T11:19:05;5.60;;;5.20;;
10731;SDS011;74907;42.812;23.216;2024-02-21T11:21:34;7.63;;;5.60;;
10731;SDS011;74907;42.812;23.216;2024-02-21T11:24:05;6.37;;;5.77;;
10731;SDS011;74907;42.812;23.216;2024-02-21T11:26:32;7.60;;;6.53;;
10731;SDS011;74907;42.812;23.216;2024-02-21T11:28:59;7.13;;;6.63;;
10731;SDS011;74907;42.812;23.216;2024-02-21T11:31:26;6.83;;;6.23;;
10731;SDS011;74907;42.812;23.216;2024-02-21T11:33:53;6.97;;;6.47;;
10731;SDS011;74907;42.812;23.216;2024-02-21T11:36:26;7.97;;;7.17;;
10731;SDS011;74907;42.812;23.216;2024-02-21T11:38:54;6.23;;;5.73;;
10731;SDS011;74907;42.812;23.216;2024-02-21T11:41:29;6.83;;;6.23;;
10731;SDS011;74907;42.812;23.216;2024-02-21T11:43:56;6.47;;;5.93;;
10731;SDS011;74907;42.812;23.216;2024-02-21T11:46:23;9.43;;;6.40;;
10731;SDS011;74907;42.812;23.216;2024-02-21T11:48:50;8.30;;;7.50;;
10731;SDS011;74907;42.812;23.216;2024-02-21T11:51:21;7.27;;;6.67;;
10731;SDS011;74907;42.812;23.216;2024-02-21T11:53:50;6.13;;;5.67;;
10731;SDS011;74907;42.812;23.216;2024-02-21T11:56:18;6.17;;;5.77;;
10731;SDS011;74907;42.812;23.216;2024-02-21T11:58:45;6.37;;;5.87;;
10731;SDS011;74907;42.812;23.216;2024-02-21T12:01:12;5.70;;;5.30;;
10731;SDS011;74907;42.812;23.216;2024-02-21T12:03:39;5.47;;;5.07;;
10731;SDS011;74907;42.812;23.216;2024-02-21T12:06:07;5.20;;;4.80;;
10731;SDS011;74907;42.812;23.216;2024-02-21T12:08:43;6.83;;;6.23;;
10731;SDS011;74907;42.812;23.216;2024-02-21T12:11:17;6.63;;;6.03;;
10731;SDS011;74907;42.812;23.216;2024-02-21T12:13:47;7.17;;;6.57;;
10731;SDS011;74907;42.812;23.216;2024-02-21T12:16:17;7.83;;;7.13;;
10731;SDS011;74907;42.812;23.216;2024-02-21T12:18:44;8.40;;;7.70;;
10731;SDS011;74907;42.812;23.216;2024-02-21T12:21:11;8.60;;;7.90;;
10731;SDS011;74907;42.812;23.216;2024-02-21T12:23:38;8.80;;;8.10;;
10731;SDS011;74907;42.812;23.216;2024-02-21T12:26:08;8.10;;;7.50;;
10731;SDS011;74907;42.812;23.216;2024-02-21T12:28:38;9.50;;;8.60;;
10731;SDS011;74907;42.812;23.216;2024-02-21T12:31:05;8.53;;;7.83;;
10731;SDS011;74907;42.812;23.216;2024-02-21T12:33:32;8.90;;;8.20;;
10731;SDS011;74907;42.812;23.216;2024-02-21T12:36:00;9.97;;;8.93;;
10731;SDS011;74907;42.812;23.216;2024-02-21T12:38:26;8.80;;;8.00;;
10731;SDS011;74907;42.812;23.216;2024-02-21T12:40:53;9.40;;;8.50;;
10731;SDS011;74907;42.812;23.216;2024-02-21T12:43:34;9.33;;;8.53;;
10731;SDS011;74907;42.812;23.216;2024-02-21T12:46:30;9.43;;;8.60;;
10731;SDS011;74907;42.812;23.216;2024-02-21T12:48:57;7.17;;;6.67;;
10731;SDS011;74907;42.812;23.216;2024-02-21T12:51:24;7.80;;;7.00;;
10731;SDS011;74907;42.812;23.216;2024-02-21T12:53:50;7.70;;;7.10;;
10731;SDS011;74907;42.812;23.216;2024-02-21T12:56:17;7.30;;;6.60;;
10731;SDS011;74907;42.812;23.216;2024-02-21T12:58:45;7.53;;;6.83;;
10731;SDS011;74907;42.812;23.216;2024-02-21T13:01:12;7.70;;;6.73;;
10731;SDS011;74907;42.812;23.216;2024-02-21T13:03:39;7.30;;;6.60;;
10731;SDS011;74907;42.812;23.216;2024-02-21T13:06:06;7.90;;;7.23;;
10731;SDS011;74907;42.812;23.216;2024-02-21T13:08:35;7.80;;;7.10;;
10731;SDS011;74907;42.812;23.216;2024-02-21T13:11:02;7.67;;;6.97;;
10731;SDS011;74907;42.812;23.216;2024-02-21T13:13:30;5.90;;;5.50;;
10731;SDS011;74907;42.812;23.216;2024-02-21T13:15:58;6.47;;;6.00;;
10731;SDS011;74907;42.812;23.216;2024-02-21T13:18:25;6.80;;;6.20;;
10731;SDS011;74907;42.812;23.216;2024-02-21T13:20:52;8.03;;;7.33;;
10731;SDS011;74907;42.812;23.216;2024-02-21T13:23:21;6.47;;;6.07;;
10731;SDS011;74907;42.812;23.216;2024-02-21T13:25:48;6.73;;;6.13;;
10731;SDS011;74907;42.812;23.216;2024-02-21T13:28:15;6.60;;;6.07;;
10731;SDS011;74907;42.812;23.216;2024-02-21T13:30:42;7.10;;;6.40;;
10731;SDS011;74907;42.812;23.216;2024-02-21T13:33:10;6.50;;;6.00;;
10731;SDS011;74907;42.812;23.216;2024-02-21T13:35:37;7.23;;;6.63;;
10731;SDS011;74907;42.812;23.216;2024-02-21T13:38:04;6.97;;;6.37;;
10731;SDS011;74907;42.812;23.216;2024-02-21T13:40:30;7.87;;;6.60;;
10731;SDS011;74907;42.812;23.216;2024-02-21T13:42:57;9.30;;;7.40;;
10731;SDS011;74907;42.812;23.216;2024-02-21T13:45:24;7.30;;;6.70;;
10731;SDS011;74907;42.812;23.216;2024-02-21T13:47:51;7.77;;;7.00;;
10731;SDS011;74907;42.812;23.216;2024-02-21T13:50:19;7.03;;;6.33;;
10731;SDS011;74907;42.812;23.216;2024-02-21T13:52:47;7.23;;;6.63;;
10731;SDS011;74907;42.812;23.216;2024-02-21T13:55:14;8.57;;;6.73;;
10731;SDS011;74907;42.812;23.216;2024-02-21T13:57:42;8.83;;;7.53;;
10731;SDS011;74907;42.812;23.216;2024-02-21T14:00:09;7.60;;;7.00;;
10731;SDS011;74907;42.812;23.216;2024-02-21T14:02:37;9.53;;;6.80;;
10731;SDS011;74907;42.812;23.216;2024-02-21T14:05:04;7.40;;;6.80;;
10731;SDS011;74907;42.812;23.216;2024-02-21T14:07:33;7.40;;;6.80;;
10731;SDS011;74907;42.812;23.216;2024-02-21T14:09:59;7.93;;;6.53;;
10731;SDS011;74907;42.812;23.216;2024-02-21T14:12:26;10.63;;;6.83;;
10731;SDS011;74907;42.812;23.216;2024-02-21T14:14:53;7.57;;;6.83;;
10731;SDS011;74907;42.812;23.216;2024-02-21T14:17:22;9.30;;;6.67;;
10731;SDS011;74907;42.812;23.216;2024-02-21T14:19:49;6.37;;;5.77;;
10731;SDS011;74907;42.812;23.216;2024-02-21T14:22:16;6.57;;;5.97;;
10731;SDS011;74907;42.812;23.216;2024-02-21T14:24:45;7.60;;;6.73;;
10731;SDS011;74907;42.812;23.216;2024-02-21T14:27:12;6.93;;;6.33;;
10731;SDS011;74907;42.812;23.216;2024-02-21T14:29:38;7.20;;;6.63;;